Time,TemperatureF,DewpointF,PressureIn,WindDirection,WindDirectionDegrees,WindSpeedMPH,WindSpeedGustMPH,Humidity,HourlyPrecipIn,Conditions,Clouds,dailyrainin,SolarRadiationWatts/m^2,SoftwareType,DateUTC
2013-02-10 00:01:00,36.0,34.0,-100.00,NE,43,0.0,0.0,91,0.00,,,0.00,0.000000,,2013-02-10 05:01:00,
2013-02-10 00:23:00,35.0,33.0,-100.00,ENE,74,0.0,0.0,92,0.00,,,0.00,0.000000,,2013-02-10 05:23:00,
2013-02-10 00:32:00,35.0,33.0,-100.00,ENE,74,0.0,0.0,92,0.00,,,0.00,0.000000,,2013-02-10 05:32:00,
2013-02-10 01:21:00,35.0,33.0,-100.00,NE,42,0.0,1.0,92,-99.99,,,0.00,0.000000,,2013-02-10 06:21:00,
2013-02-10 01:32:00,35.0,33.0,-100.00,NE,42,0.0,1.0,92,-99.99,,,0.00,0.000000,,2013-02-10 06:32:00,
2013-02-10 02:32:00,35.0,33.0,-100.00,NE,56,0.0,0.0,92,-99.99,,,0.00,0.000000,,2013-02-10 07:32:00,
2013-02-10 03:32:00,35.0,33.0,-100.00,NE,40,0.0,0.0,92,-99.99,,,0.00,0.000000,,2013-02-10 08:32:00,
2013-02-10 04:21:00,36.0,34.0,-100.00,NE,41,0.0,2.0,93,-99.99,,,0.00,0.000000,,2013-02-10 09:21:00,
2013-02-10 04:32:00,36.0,34.0,-100.00,NE,41,0.0,2.0,93,-99.99,,,0.00,0.000000,,2013-02-10 09:32:00,
2013-02-10 05:32:00,37.0,35.0,-100.00,NNE,19,0.0,1.0,93,-99.99,,,0.00,0.000000,,2013-02-10 10:32:00,
2013-02-10 06:22:00,39.0,37.0,-100.00,North,7,0.0,2.0,93,-99.99,,,0.00,0.000000,,2013-02-10 11:22:00,
2013-02-10 06:32:00,39.0,37.0,-100.00,North,7,0.0,2.0,93,-99.99,,,0.00,0.000000,,2013-02-10 11:32:00,
2013-02-10 06:42:00,39.0,37.0,-100.00,North,7,0.0,2.0,93,-99.99,,,0.00,0.000000,,2013-02-10 11:42:00,
2013-02-10 06:52:00,39.0,37.0,-100.00,North,7,0.0,2.0,93,-99.99,,,0.00,0.000000,,2013-02-10 11:52:00,
2013-02-10 07:02:00,39.0,37.0,-100.00,North,7,0.0,2.0,93,-99.99,,,0.00,0.000000,,2013-02-10 12:02:00,
2013-02-10 10:32:00,66.0,56.0,-100.00,ESE,103,6.0,15.0,69,-99.99,,,0.00,372.000000,,2013-02-10 15:32:00,
2013-02-10 10:42:00,66.0,56.0,-100.00,ESE,103,6.0,15.0,69,-99.99,,,0.00,372.000000,,2013-02-10 15:42:00,
2013-02-10 10:52:00,66.0,56.0,-100.00,ESE,103,6.0,15.0,69,-99.99,,,0.00,372.000000,,2013-02-10 15:52:00,
2013-02-10 11:02:00,66.0,56.0,-100.00,ESE,103,6.0,15.0,69,-99.99,,,0.00,372.000000,,2013-02-10 16:02:00,
2013-02-10 11:32:00,69.0,51.0,-100.00,SE,127,7.0,16.0,52,0.00,,,0.00,567.000000,,2013-02-10 16:32:00,
2013-02-10 11:42:00,69.0,51.0,-100.00,SE,127,7.0,16.0,52,0.00,,,0.00,567.000000,,2013-02-10 16:42:00,
2013-02-10 11:52:00,69.0,51.0,-100.00,SE,127,7.0,16.0,52,0.00,,,0.00,567.000000,,2013-02-10 16:52:00,
2013-02-10 12:02:00,69.0,51.0,-100.00,SE,127,7.0,16.0,52,0.00,,,0.00,567.000000,,2013-02-10 17:02:00,
2013-02-10 12:32:00,70.0,52.0,-100.00,SE,135,7.0,14.0,52,0.00,,,0.00,711.000000,,2013-02-10 17:32:00,
2013-02-10 12:42:00,70.0,52.0,-100.00,SE,135,7.0,14.0,52,0.00,,,0.00,711.000000,,2013-02-10 17:42:00,
2013-02-10 12:53:00,70.0,52.0,-100.00,SE,135,7.0,14.0,52,0.00,,,0.00,711.000000,,2013-02-10 17:53:00,
2013-02-10 13:02:00,70.0,52.0,-100.00,SE,135,7.0,14.0,52,0.00,,,0.00,711.000000,,2013-02-10 18:02:00,
2013-02-10 13:32:00,72.0,53.0,-100.00,ESE,119,7.0,15.0,52,0.00,,,0.00,760.000000,,2013-02-10 18:32:00,
2013-02-10 13:42:00,72.0,53.0,-100.00,ESE,119,7.0,15.0,52,0.00,,,0.00,760.000000,,2013-02-10 18:42:00,
2013-02-10 13:52:00,72.0,53.0,-100.00,ESE,119,7.0,15.0,52,0.00,,,0.00,760.000000,,2013-02-10 18:52:00,
2013-02-10 14:02:00,72.0,53.0,-100.00,ESE,119,7.0,15.0,52,0.00,,,0.00,760.000000,,2013-02-10 19:02:00,
2013-02-10 14:32:00,71.0,54.0,-100.00,SE,137,6.0,14.0,54,0.00,,,0.00,521.000000,,2013-02-10 19:32:00,
2013-02-10 14:43:00,71.0,54.0,-100.00,SE,137,6.0,14.0,54,0.00,,,0.00,521.000000,,2013-02-10 19:43:00,
2013-02-10 14:52:00,71.0,54.0,-100.00,SE,137,6.0,14.0,54,0.00,,,0.00,521.000000,,2013-02-10 19:52:00,
2013-02-10 15:02:00,71.0,54.0,-100.00,SE,137,6.0,14.0,54,0.00,,,0.00,521.000000,,2013-02-10 20:02:00,
2013-02-10 15:22:00,73.0,54.0,-100.00,SE,129,6.0,16.0,52,0.00,,,0.00,763.000000,,2013-02-10 20:22:00,
2013-02-10 15:32:00,73.0,54.0,-100.00,SE,129,6.0,16.0,52,0.00,,,0.00,763.000000,,2013-02-10 20:32:00,
2013-02-10 15:42:00,73.0,54.0,-100.00,SE,129,6.0,16.0,52,0.00,,,0.00,763.000000,,2013-02-10 20:42:00,
2013-02-10 15:52:00,73.0,54.0,-100.00,SE,129,6.0,16.0,52,0.00,,,0.00,763.000000,,2013-02-10 20:52:00,
2013-02-10 16:02:00,73.0,54.0,-100.00,SE,129,6.0,16.0,52,0.00,,,0.00,763.000000,,2013-02-10 21:02:00,
2013-02-10 16:32:00,70.0,52.0,-100.00,SE,127,7.0,15.0,53,0.00,,,0.00,477.000000,,2013-02-10 21:32:00,
2013-02-10 16:42:00,70.0,52.0,-100.00,SE,127,7.0,15.0,53,0.00,,,0.00,477.000000,,2013-02-10 21:42:00,
2013-02-10 16:52:00,70.0,52.0,-100.00,SE,127,7.0,15.0,53,0.00,,,0.00,477.000000,,2013-02-10 21:52:00,
2013-02-10 17:02:00,70.0,52.0,-100.00,SE,127,7.0,15.0,53,0.00,,,0.00,477.000000,,2013-02-10 22:02:00,
2013-02-10 17:32:00,68.0,53.0,-100.00,SE,131,5.0,16.0,59,0.00,,,0.00,203.000000,,2013-02-10 22:32:00,
2013-02-10 17:42:00,68.0,53.0,-100.00,SE,131,5.0,16.0,59,0.00,,,0.00,203.000000,,2013-02-10 22:42:00,
2013-02-10 17:53:00,68.0,53.0,-100.00,SE,131,5.0,16.0,59,0.00,,,0.00,203.000000,,2013-02-10 22:53:00,
2013-02-10 18:02:00,68.0,53.0,-100.00,SE,131,5.0,16.0,59,0.00,,,0.00,203.000000,,2013-02-10 23:02:00,
2013-02-10 18:22:00,65.0,53.0,-100.00,SE,135,4.0,11.0,66,0.00,,,0.00,48.000000,,2013-02-10 23:22:00,
2013-02-10 18:32:00,65.0,53.0,-100.00,SE,135,4.0,11.0,66,0.00,,,0.00,48.000000,,2013-02-10 23:32:00,
2013-02-10 18:42:00,65.0,53.0,-100.00,SE,135,4.0,11.0,66,0.00,,,0.00,48.000000,,2013-02-10 23:42:00,
2013-02-10 18:52:00,65.0,53.0,-100.00,SE,135,4.0,11.0,66,0.00,,,0.00,48.000000,,2013-02-10 23:52:00,
2013-02-10 19:02:00,65.0,53.0,-100.00,SE,135,4.0,11.0,66,0.00,,,0.00,48.000000,,2013-02-11 00:02:00,
2013-02-10 19:32:00,63.0,55.0,-100.00,ESE,119,4.0,9.0,74,0.00,,,0.00,1.000000,,2013-02-11 00:32:00,
2013-02-10 19:42:00,63.0,55.0,-100.00,ESE,119,4.0,9.0,74,0.00,,,0.00,1.000000,,2013-02-11 00:42:00,
2013-02-10 19:52:00,63.0,55.0,-100.00,ESE,119,4.0,9.0,74,0.00,,,0.00,1.000000,,2013-02-11 00:52:00,
2013-02-10 20:01:00,63.0,55.0,-100.00,ESE,119,4.0,9.0,74,0.00,,,0.00,1.000000,,2013-02-11 01:01:00,
2013-02-10 20:32:00,62.0,55.0,-100.00,SE,127,3.0,9.0,79,0.00,,,0.00,0.000000,,2013-02-11 01:32:00,
2013-02-10 20:42:00,62.0,55.0,-100.00,SE,127,3.0,9.0,79,0.00,,,0.00,0.000000,,2013-02-11 01:42:00,
2013-02-10 20:52:00,62.0,55.0,-100.00,SE,127,3.0,9.0,79,0.00,,,0.00,0.000000,,2013-02-11 01:52:00,
2013-02-10 21:01:00,62.0,55.0,-100.00,SE,127,3.0,9.0,79,0.00,,,0.00,0.000000,,2013-02-11 02:01:00,
2013-02-10 21:32:00,63.0,56.0,-100.00,ESE,118,4.0,8.0,79,0.00,,,0.00,0.000000,,2013-02-11 02:32:00,
2013-02-10 21:42:00,63.0,56.0,-100.00,ESE,118,4.0,8.0,79,0.00,,,0.00,0.000000,,2013-02-11 02:42:00,
2013-02-10 21:52:00,63.0,56.0,-100.00,ESE,118,4.0,8.0,79,0.00,,,0.00,0.000000,,2013-02-11 02:52:00,
2013-02-10 22:02:00,63.0,56.0,-100.00,ESE,118,4.0,8.0,79,0.00,,,0.00,0.000000,,2013-02-11 03:02:00,
2013-02-10 22:21:00,65.0,57.0,-100.00,SE,126,4.0,11.0,76,0.00,,,0.00,0.000000,,2013-02-11 03:21:00,
2013-02-10 22:32:00,65.0,57.0,-100.00,SE,126,4.0,11.0,76,0.00,,,0.00,0.000000,,2013-02-11 03:32:00,
2013-02-10 22:42:00,65.0,57.0,-100.00,SE,126,4.0,11.0,76,0.00,,,0.00,0.000000,,2013-02-11 03:42:00,
2013-02-10 22:52:00,65.0,57.0,-100.00,SE,126,4.0,11.0,76,0.00,,,0.00,0.000000,,2013-02-11 03:52:00,
2013-02-10 23:02:00,65.0,57.0,-100.00,SE,126,4.0,11.0,76,0.00,,,0.00,0.000000,,2013-02-11 04:02:00,
2013-02-10 23:22:00,65.0,56.0,-100.00,SE,128,4.0,11.0,74,0.00,,,0.00,0.000000,,2013-02-11 04:22:00,
2013-02-10 23:32:00,65.0,56.0,-100.00,SE,128,4.0,11.0,74,0.00,,,0.00,0.000000,,2013-02-11 04:32:00,
2013-02-10 23:42:00,65.0,56.0,-100.00,SE,128,4.0,11.0,74,0.00,,,0.00,0.000000,,2013-02-11 04:42:00,
2013-02-10 23:52:00,65.0,56.0,-100.00,SE,128,4.0,11.0,74,0.00,,,0.00,0.000000,,2013-02-11 04:52:00,